Time,TemperatureF,DewpointF,PressureIn,WindDirection,WindDirectionDegrees,WindSpeedMPH,WindSpeedGustMPH,Humidity,HourlyPrecipIn,Conditions,Clouds,dailyrainin,SoftwareType,DateUTC
2013-01-27 00:01:00,43.0,25.0,30.16,SE,137,5.0,11.0,48,0.00,,,0.00,,2013-01-27 06:01:00,
2013-01-27 00:11:00,43.0,25.0,30.16,SE,137,5.0,11.0,48,0.00,,,0.00,,2013-01-27 06:11:00,
2013-01-27 00:21:00,43.0,25.0,30.16,SE,137,5.0,11.0,48,0.00,,,0.00,,2013-01-27 06:21:00,
2013-01-27 00:32:00,42.0,26.0,30.16,SE,137,3.0,9.0,53,0.00,,,0.00,,2013-01-27 06:32:00,
2013-01-27 00:42:00,42.0,26.0,30.16,SE,137,3.0,9.0,53,0.00,,,0.00,,2013-01-27 06:42:00,
2013-01-27 00:52:00,42.0,26.0,30.16,SE,137,3.0,9.0,53,0.00,,,0.00,,2013-01-27 06:52:00,
2013-01-27 01:01:00,40.0,30.0,30.14,ESE,102,5.0,10.0,66,0.01,,,0.01,,2013-01-27 07:01:00,
2013-01-27 01:13:00,40.0,30.0,30.14,ESE,102,5.0,10.0,66,0.01,,,0.01,,2013-01-27 07:13:00,
2013-01-27 01:21:00,39.0,31.0,30.14,ESE,106,5.0,11.0,73,0.03,,,0.03,,2013-01-27 07:21:00,
2013-01-27 01:31:00,39.0,32.0,30.14,SE,133,5.0,12.0,77,0.05,,,0.05,,2013-01-27 07:31:00,
2013-01-27 01:41:00,39.0,32.0,30.14,SE,133,5.0,12.0,77,0.05,,,0.05,,2013-01-27 07:41:00,
2013-01-27 01:51:00,38.0,32.0,30.14,ESE,115,5.0,10.0,79,0.07,,,0.07,,2013-01-27 07:51:00,
2013-01-27 02:01:00,38.0,32.0,30.13,ESE,123,5.0,13.0,80,0.07,,,0.08,,2013-01-27 08:01:00,
2013-01-27 02:11:00,38.0,32.0,30.13,ESE,123,5.0,13.0,80,0.07,,,0.08,,2013-01-27 08:11:00,
2013-01-27 02:22:00,38.0,33.0,30.13,ESE,122,5.0,14.0,81,0.06,,,0.09,,2013-01-27 08:22:00,
2013-01-27 02:31:00,38.0,33.0,30.13,SE,130,5.0,12.0,82,0.04,,,0.10,,2013-01-27 08:31:00,
2013-01-27 02:42:00,38.0,33.0,30.13,SE,130,5.0,12.0,82,0.04,,,0.10,,2013-01-27 08:42:00,
2013-01-27 02:52:00,38.0,33.0,30.13,ESE,115,5.0,10.0,82,0.03,,,0.10,,2013-01-27 08:52:00,
2013-01-27 03:02:00,38.0,33.0,30.13,SSE,155,5.0,13.0,82,0.03,,,0.11,,2013-01-27 09:02:00,
2013-01-27 03:11:00,38.0,33.0,30.13,SSE,155,5.0,13.0,82,0.03,,,0.11,,2013-01-27 09:11:00,
2013-01-27 03:21:00,38.0,33.0,30.11,ESE,123,5.0,13.0,83,0.02,,,0.11,,2013-01-27 09:21:00,
2013-01-27 03:32:00,38.0,33.0,30.10,SE,132,4.0,14.0,83,0.01,,,0.11,,2013-01-27 09:32:00,
2013-01-27 03:41:00,38.0,33.0,30.10,SE,132,4.0,14.0,83,0.01,,,0.11,,2013-01-27 09:41:00,
2013-01-27 03:51:00,38.0,33.0,30.09,East,97,6.0,11.0,82,0.01,,,0.11,,2013-01-27 09:51:00,
2013-01-27 04:01:00,38.0,33.0,30.09,ESE,114,2.0,12.0,81,0.00,,,0.11,,2013-01-27 10:01:00,
2013-01-27 04:11:00,38.0,33.0,30.09,ESE,115,4.0,9.0,81,0.00,,,0.11,,2013-01-27 10:11:00,
2013-01-27 04:21:00,38.0,33.0,30.09,ESE,115,4.0,9.0,81,0.00,,,0.11,,2013-01-27 10:21:00,
2013-01-27 04:31:00,38.0,33.0,30.09,ESE,110,2.0,8.0,81,0.00,,,0.11,,2013-01-27 10:31:00,
2013-01-27 04:42:00,38.0,33.0,30.09,ESE,110,2.0,8.0,81,0.00,,,0.11,,2013-01-27 10:42:00,
2013-01-27 04:51:00,38.0,32.0,30.09,SE,140,3.0,8.0,80,0.00,,,0.11,,2013-01-27 10:51:00,
2013-01-27 05:01:00,38.0,32.0,30.09,ESE,115,4.0,9.0,80,0.00,,,0.11,,2013-01-27 11:01:00,
2013-01-27 05:11:00,38.0,32.0,30.09,ESE,115,4.0,9.0,80,0.00,,,0.11,,2013-01-27 11:11:00,
2013-01-27 05:21:00,38.0,32.0,30.09,ESE,115,4.0,9.0,80,0.00,,,0.11,,2013-01-27 11:21:00,
2013-01-27 05:32:00,38.0,32.0,30.06,ESE,123,4.0,8.0,79,0.00,,,0.11,,2013-01-27 11:32:00,
2013-01-27 05:42:00,38.0,32.0,30.06,ESE,123,4.0,8.0,79,0.00,,,0.11,,2013-01-27 11:42:00,
2013-01-27 05:52:00,39.0,33.0,30.04,SE,132,6.0,11.0,79,0.00,,,0.11,,2013-01-27 11:52:00,
2013-01-27 06:02:00,39.0,33.0,30.04,ESE,117,5.0,10.0,79,0.00,,,0.11,,2013-01-27 12:02:00,
2013-01-27 06:11:00,39.0,33.0,30.04,ESE,117,5.0,10.0,79,0.00,,,0.11,,2013-01-27 12:11:00,
2013-01-27 06:21:00,39.0,33.0,30.03,East,94,6.0,13.0,79,0.00,,,0.11,,2013-01-27 12:21:00,
2013-01-27 06:32:00,39.0,33.0,30.03,ESE,121,8.0,14.0,79,0.00,,,0.11,,2013-01-27 12:32:00,
2013-01-27 06:42:00,39.0,33.0,30.03,ESE,121,8.0,14.0,79,0.00,,,0.11,,2013-01-27 12:42:00,
2013-01-27 06:52:00,39.0,33.0,30.02,ESE,111,6.0,14.0,80,0.01,,,0.12,,2013-01-27 12:52:00,
2013-01-27 07:02:00,39.0,33.0,30.02,East,101,6.0,14.0,80,0.01,,,0.12,,2013-01-27 13:02:00,
2013-01-27 07:11:00,39.0,33.0,30.02,East,101,6.0,14.0,80,0.01,,,0.12,,2013-01-27 13:11:00,
2013-01-27 07:22:00,39.0,33.0,30.02,ESE,119,6.0,17.0,80,0.01,,,0.12,,2013-01-27 13:22:00,
2013-01-27 07:32:00,39.0,34.0,30.01,East,100,8.0,17.0,83,0.01,,,0.12,,2013-01-27 13:32:00,
2013-01-27 07:42:00,39.0,34.0,30.01,East,100,8.0,17.0,83,0.01,,,0.12,,2013-01-27 13:42:00,
2013-01-27 07:52:00,39.0,35.0,30.01,SE,145,8.0,16.0,86,0.00,,,0.12,,2013-01-27 13:52:00,
2013-01-27 08:02:00,39.0,35.0,30.00,ESE,119,7.0,16.0,87,0.00,,,0.12,,2013-01-27 14:02:00,
2013-01-27 08:11:00,39.0,35.0,30.00,ESE,119,7.0,16.0,87,0.00,,,0.12,,2013-01-27 14:11:00,
2013-01-27 08:22:00,39.0,36.0,30.00,SE,137,7.0,15.0,88,0.00,,,0.12,,2013-01-27 14:22:00,
2013-01-27 08:32:00,40.0,36.0,30.00,ESE,114,8.0,16.0,86,0.00,,,0.12,,2013-01-27 14:32:00,
2013-01-27 08:42:00,40.0,36.0,30.00,ESE,114,8.0,16.0,86,0.00,,,0.12,,2013-01-27 14:42:00,
2013-01-27 08:52:00,40.0,36.0,30.00,SE,130,7.0,16.0,86,0.00,,,0.12,,2013-01-27 14:52:00,
2013-01-27 09:02:00,40.0,36.0,29.99,East,86,7.0,14.0,86,0.00,,,0.12,,2013-01-27 15:02:00,
2013-01-27 09:11:00,40.0,36.0,29.99,East,86,7.0,14.0,86,0.00,,,0.12,,2013-01-27 15:11:00,
2013-01-27 09:22:00,40.0,36.0,29.98,SE,136,6.0,14.0,87,0.00,,,0.12,,2013-01-27 15:22:00,
2013-01-27 09:32:00,41.0,37.0,29.99,SE,136,5.0,13.0,87,0.00,,,0.12,,2013-01-27 15:32:00,
2013-01-27 09:42:00,41.0,37.0,29.99,SE,136,5.0,13.0,87,0.00,,,0.12,,2013-01-27 15:42:00,
2013-01-27 09:52:00,41.0,38.0,29.97,ESE,102,4.0,12.0,88,0.00,,,0.12,,2013-01-27 15:52:00,
2013-01-27 10:02:00,42.0,38.0,29.97,SSE,165,0.0,9.0,87,0.00,,,0.12,,2013-01-27 16:02:00,
2013-01-27 10:12:00,42.0,38.0,29.97,SSE,165,0.0,9.0,87,0.00,,,0.12,,2013-01-27 16:12:00,
2013-01-27 10:21:00,43.0,40.0,29.96,SE,144,2.0,9.0,88,0.00,,,0.12,,2013-01-27 16:21:00,
2013-01-27 10:32:00,44.0,41.0,29.96,SSE,159,5.0,13.0,88,0.00,,,0.12,,2013-01-27 16:32:00,
2013-01-27 10:42:00,44.0,41.0,29.96,SSE,159,5.0,13.0,88,0.00,,,0.12,,2013-01-27 16:42:00,
2013-01-27 10:52:00,45.0,42.0,29.96,South,180,6.0,13.0,88,0.00,,,0.12,,2013-01-27 16:52:00,
2013-01-27 11:02:00,46.0,42.0,29.96,South,177,4.0,16.0,87,0.00,,,0.12,,2013-01-27 17:02:00,
2013-01-27 11:12:00,46.0,42.0,29.96,South,177,4.0,16.0,87,0.00,,,0.12,,2013-01-27 17:12:00,
2013-01-27 11:22:00,47.0,43.0,29.95,ESE,111,4.0,14.0,86,0.00,,,0.12,,2013-01-27 17:22:00,
2013-01-27 11:32:00,48.0,44.0,29.94,SSE,149,6.0,17.0,86,0.00,,,0.12,,2013-01-27 17:32:00,
2013-01-27 11:42:00,48.0,44.0,29.94,SSE,149,6.0,17.0,86,0.00,,,0.12,,2013-01-27 17:42:00,
2013-01-27 11:52:00,48.0,44.0,29.94,South,186,4.0,18.0,85,0.00,,,0.12,,2013-01-27 17:52:00,
2013-01-27 12:02:00,49.0,45.0,29.93,South,180,4.0,13.0,85,0.00,,,0.12,,2013-01-27 18:02:00,
2013-01-27 12:11:00,49.0,45.0,29.93,South,180,4.0,13.0,85,0.00,,,0.12,,2013-01-27 18:11:00,
2013-01-27 12:22:00,49.0,45.0,29.93,South,170,3.0,20.0,86,0.00,,,0.12,,2013-01-27 18:22:00,
2013-01-27 12:32:00,50.0,46.0,29.91,SSE,166,2.0,12.0,86,0.00,,,0.12,,2013-01-27 18:32:00,
2013-01-27 12:42:00,50.0,46.0,29.91,SSE,166,2.0,12.0,86,0.00,,,0.12,,2013-01-27 18:42:00,
2013-01-27 12:52:00,50.0,46.0,29.90,East,95,5.0,13.0,86,0.00,,,0.12,,2013-01-27 18:52:00,
2013-01-27 13:02:00,51.0,47.0,29.89,South,175,2.0,12.0,86,0.00,,,0.12,,2013-01-27 19:02:00,
2013-01-27 13:11:00,51.0,47.0,29.89,South,175,2.0,12.0,86,0.00,,,0.12,,2013-01-27 19:11:00,
2013-01-27 13:22:00,51.0,47.0,29.89,SW,231,2.0,13.0,85,0.00,,,0.12,,2013-01-27 19:22:00,
2013-01-27 13:32:00,52.0,47.0,29.88,South,187,6.0,15.0,84,0.00,,,0.12,,2013-01-27 19:32:00,
2013-01-27 13:42:00,52.0,47.0,29.88,South,187,6.0,15.0,84,0.00,,,0.12,,2013-01-27 19:42:00,
2013-01-27 13:51:00,53.0,48.0,29.87,SSW,209,6.0,11.0,83,0.00,,,0.12,,2013-01-27 19:51:00,
2013-01-27 14:02:00,54.0,49.0,29.85,South,173,3.0,21.0,82,0.00,,,0.12,,2013-01-27 20:02:00,
2013-01-27 14:11:00,54.0,49.0,29.85,South,173,3.0,21.0,82,0.00,,,0.12,,2013-01-27 20:11:00,
2013-01-27 14:22:00,55.0,49.0,29.85,SSW,211,3.0,17.0,81,0.00,,,0.12,,2013-01-27 20:22:00,
2013-01-27 14:32:00,56.0,50.0,29.85,West,271,3.0,12.0,79,0.00,,,0.12,,2013-01-27 20:32:00,
2013-01-27 14:42:00,56.0,50.0,29.85,West,271,3.0,12.0,79,0.00,,,0.12,,2013-01-27 20:42:00,
2013-01-27 14:52:00,56.0,49.0,29.84,SSW,204,1.0,11.0,78,0.00,,,0.12,,2013-01-27 20:52:00,
2013-01-27 15:02:00,56.0,49.0,29.84,SSW,204,1.0,11.0,78,0.00,,,0.12,,2013-01-27 21:02:00,
2013-01-27 15:12:00,56.0,49.0,29.84,SSW,204,1.0,11.0,78,0.00,,,0.12,,2013-01-27 21:12:00,
2013-01-27 15:22:00,57.0,50.0,29.84,South,178,4.0,12.0,76,0.00,,,0.12,,2013-01-27 21:22:00,
2013-01-27 15:33:00,57.0,49.0,29.84,SW,216,6.0,17.0,75,0.00,,,0.12,,2013-01-27 21:33:00,
2013-01-27 15:42:00,57.0,49.0,29.84,SW,216,6.0,17.0,75,0.00,,,0.12,,2013-01-27 21:42:00,
2013-01-27 15:52:00,57.0,49.0,29.84,West,259,4.0,22.0,75,0.00,,,0.12,,2013-01-27 21:52:00,
2013-01-27 16:02:00,57.0,49.0,29.83,WSW,241,2.0,14.0,75,0.00,,,0.12,,2013-01-27 22:02:00,
2013-01-27 16:11:00,57.0,49.0,29.83,WSW,241,2.0,14.0,75,0.00,,,0.12,,2013-01-27 22:11:00,
2013-01-27 16:22:00,57.0,49.0,29.83,SSW,203,3.0,13.0,75,0.00,,,0.12,,2013-01-27 22:22:00,
2013-01-27 16:32:00,57.0,50.0,29.82,SSE,153,1.0,19.0,76,0.00,,,0.12,,2013-01-27 22:32:00,
2013-01-27 16:42:00,57.0,50.0,29.82,SSE,153,1.0,19.0,76,0.00,,,0.12,,2013-01-27 22:42:00,
2013-01-27 16:52:00,57.0,49.0,29.81,SW,233,3.0,12.0,75,0.00,,,0.12,,2013-01-27 22:52:00,
2013-01-27 17:02:00,57.0,49.0,29.82,SSE,147,2.0,18.0,75,0.00,,,0.12,,2013-01-27 23:02:00,
2013-01-27 17:12:00,57.0,49.0,29.82,SSE,147,2.0,18.0,75,0.00,,,0.12,,2013-01-27 23:12:00,
2013-01-27 17:21:00,57.0,50.0,29.81,South,191,4.0,18.0,76,0.00,,,0.12,,2013-01-27 23:21:00,
2013-01-27 17:32:00,57.0,50.0,29.82,South,186,3.0,14.0,76,0.00,,,0.12,,2013-01-27 23:32:00,
2013-01-27 17:41:00,57.0,50.0,29.82,South,186,3.0,14.0,76,0.00,,,0.12,,2013-01-27 23:41:00,
2013-01-27 17:52:00,56.0,49.0,29.81,South,170,2.0,13.0,77,0.00,,,0.12,,2013-01-27 23:52:00,
2013-01-27 18:02:00,56.0,49.0,29.82,SSE,155,3.0,10.0,77,0.00,,,0.12,,2013-01-28 00:02:00,
2013-01-27 18:11:00,56.0,49.0,29.82,SSE,155,3.0,10.0,77,0.00,,,0.12,,2013-01-28 00:11:00,
2013-01-27 18:21:00,56.0,49.0,29.83,East,81,6.0,18.0,78,0.00,,,0.12,,2013-01-28 00:21:00,
2013-01-27 18:32:00,56.0,50.0,29.83,South,186,7.0,17.0,79,0.00,,,0.12,,2013-01-28 00:32:00,
2013-01-27 18:42:00,56.0,50.0,29.83,South,186,7.0,17.0,79,0.00,,,0.12,,2013-01-28 00:42:00,
2013-01-27 18:51:00,56.0,50.0,29.84,SSW,199,5.0,17.0,79,0.00,,,0.12,,2013-01-28 00:51:00,
2013-01-27 19:01:00,56.0,50.0,29.85,West,281,6.0,17.0,79,0.00,,,0.12,,2013-01-28 01:01:00,
2013-01-27 19:11:00,56.0,50.0,29.85,West,281,6.0,17.0,79,0.00,,,0.12,,2013-01-28 01:11:00,
2013-01-27 19:22:00,56.0,50.0,29.86,SW,219,5.0,17.0,79,0.00,,,0.12,,2013-01-28 01:22:00,
2013-01-27 19:33:00,56.0,50.0,29.86,SSW,200,2.0,16.0,80,0.00,,,0.12,,2013-01-28 01:33:00,
2013-01-27 19:42:00,56.0,50.0,29.86,SSW,200,2.0,16.0,80,0.00,,,0.12,,2013-01-28 01:42:00,
2013-01-27 19:52:00,56.0,50.0,29.86,South,178,3.0,13.0,80,0.00,,,0.12,,2013-01-28 01:52:00,
2013-01-27 20:02:00,56.0,50.0,29.86,West,265,3.0,8.0,81,0.00,,,0.12,,2013-01-28 02:02:00,
2013-01-27 20:11:00,56.0,50.0,29.86,West,265,3.0,8.0,81,0.00,,,0.12,,2013-01-28 02:11:00,
2013-01-27 20:22:00,56.0,50.0,29.86,WSW,241,2.0,11.0,81,0.00,,,0.12,,2013-01-28 02:22:00,
2013-01-27 20:32:00,56.0,51.0,29.87,SSE,162,3.0,12.0,82,0.00,,,0.12,,2013-01-28 02:32:00,
2013-01-27 20:42:00,56.0,51.0,29.87,SSE,162,3.0,12.0,82,0.00,,,0.12,,2013-01-28 02:42:00,
2013-01-27 20:52:00,56.0,51.0,29.86,SSW,202,3.0,14.0,82,0.00,,,0.12,,2013-01-28 02:52:00,
2013-01-27 21:02:00,56.0,51.0,29.86,South,186,4.0,11.0,82,0.00,,,0.12,,2013-01-28 03:02:00,
2013-01-27 21:11:00,56.0,51.0,29.86,South,186,4.0,11.0,82,0.00,,,0.12,,2013-01-28 03:11:00,
2013-01-27 21:21:00,56.0,51.0,29.87,South,188,2.0,14.0,83,0.00,,,0.12,,2013-01-28 03:21:00,
2013-01-27 21:32:00,56.0,51.0,29.87,SE,134,2.0,11.0,83,0.00,,,0.12,,2013-01-28 03:32:00,
2013-01-27 21:42:00,56.0,51.0,29.87,SE,134,2.0,11.0,83,0.00,,,0.12,,2013-01-28 03:42:00,
2013-01-27 21:52:00,56.0,51.0,29.88,ESE,105,6.0,16.0,83,0.00,,,0.12,,2013-01-28 03:52:00,
2013-01-27 22:02:00,56.0,51.0,29.88,SE,137,3.0,12.0,83,0.00,,,0.12,,2013-01-28 04:02:00,
2013-01-27 22:11:00,56.0,51.0,29.88,SE,137,3.0,12.0,83,0.00,,,0.12,,2013-01-28 04:11:00,
2013-01-27 22:22:00,56.0,51.0,29.89,SW,217,1.0,11.0,84,0.00,,,0.12,,2013-01-28 04:22:00,
2013-01-27 22:32:00,56.0,51.0,29.90,South,177,2.0,10.0,84,0.00,,,0.12,,2013-01-28 04:32:00,
2013-01-27 22:42:00,56.0,51.0,29.90,South,177,2.0,10.0,84,0.00,,,0.12,,2013-01-28 04:42:00,
2013-01-27 22:52:00,56.0,52.0,29.89,SW,221,3.0,11.0,85,0.00,,,0.12,,2013-01-28 04:52:00,
2013-01-27 23:04:00,56.0,52.0,29.90,SSW,200,1.0,10.0,85,0.00,,,0.12,,2013-01-28 05:04:00,
2013-01-27 23:11:00,56.0,52.0,29.90,SSW,200,1.0,10.0,85,0.00,,,0.12,,2013-01-28 05:11:00,
2013-01-27 23:21:00,56.0,52.0,29.90,SW,234,0.0,11.0,85,0.00,,,0.12,,2013-01-28 05:21:00,
2013-01-27 23:32:00,56.0,52.0,29.90,SSE,157,1.0,10.0,85,0.00,,,0.12,,2013-01-28 05:32:00,
2013-01-27 23:41:00,56.0,52.0,29.90,SSE,157,1.0,10.0,85,0.00,,,0.12,,2013-01-28 05:41:00,
2013-01-27 23:52:00,57.0,53.0,29.89,South,176,1.0,10.0,86,0.00,,,0.12,,2013-01-28 05:52:00,